sensor_id;sensor_type;location;lat;lon;timestamp;P1;durP1;ratioP1;P2;durP2;ratioP2
61150;SDS011;47029;50.994;2.876;2022-09-29T00:01:02;5.37;;;2.25;;
61150;SDS011;47029;50.994;2.876;2022-09-29T00:03:30;5.03;;;2.30;;
61150;SDS011;47029;50.994;2.876;2022-09-29T00:05:56;5.70;;;2.35;;
61150;SDS011;47029;50.994;2.876;2022-09-29T00:08:25;5.65;;;2.40;;
61150;SDS011;47029;50.994;2.876;2022-09-29T00:10:53;6.55;;;2.78;;
61150;SDS011;47029;50.994;2.876;2022-09-29T00:13:19;7.15;;;2.75;;
61150;SDS011;47029;50.994;2.876;2022-09-29T00:15:57;6.53;;;2.75;;
61150;SDS011;47029;50.994;2.876;2022-09-29T00:18:24;8.60;;;3.53;;
61150;SDS011;47029;50.994;2.876;2022-09-29T00:20:55;8.55;;;3.50;;
61150;SDS011;47029;50.994;2.876;2022-09-29T00:23:22;8.68;;;3.33;;
61150;SDS011;47029;50.994;2.876;2022-09-29T00:26:00;6.80;;;2.97;;
61150;SDS011;47029;50.994;2.876;2022-09-29T00:28:34;5.28;;;2.03;;
61150;SDS011;47029;50.994;2.876;2022-09-29T00:31:03;4.72;;;2.08;;
61150;SDS011;47029;50.994;2.876;2022-09-29T00:33:33;3.62;;;1.95;;
61150;SDS011;47029;50.994;2.876;2022-09-29T00:36:01;4.75;;;2.17;;
61150;SDS011;47029;50.994;2.876;2022-09-29T00:38:32;5.87;;;2.00;;
61150;SDS011;47029;50.994;2.876;2022-09-29T00:40:59;4.53;;;2.25;;
61150;SDS011;47029;50.994;2.876;2022-09-29T00:46:19;6.40;;;2.50;;
61150;SDS011;47029;50.994;2.876;2022-09-29T00:48:58;4.68;;;2.00;;
61150;SDS011;47029;50.994;2.876;2022-09-29T00:52:07;4.65;;;2.20;;
61150;SDS011;47029;50.994;2.876;2022-09-29T00:54:44;5.47;;;2.10;;
61150;SDS011;47029;50.994;2.876;2022-09-29T00:57:17;5.70;;;2.17;;
61150;SDS011;47029;50.994;2.876;2022-09-29T00:59:49;4.45;;;2.10;;
61150;SDS011;47029;50.994;2.876;2022-09-29T01:02:20;4.80;;;2.08;;
61150;SDS011;47029;50.994;2.876;2022-09-29T01:04:48;4.68;;;2.10;;
61150;SDS011;47029;50.994;2.876;2022-09-29T01:07:18;5.50;;;2.08;;
61150;SDS011;47029;50.994;2.876;2022-09-29T01:09:48;7.82;;;2.45;;
61150;SDS011;47029;50.994;2.876;2022-09-29T01:12:19;3.92;;;2.00;;
61150;SDS011;47029;50.994;2.876;2022-09-29T01:14:45;5.00;;;2.20;;
61150;SDS011;47029;50.994;2.876;2022-09-29T01:17:12;8.07;;;2.75;;
61150;SDS011;47029;50.994;2.876;2022-09-29T01:27:51;7.15;;;2.47;;
61150;SDS011;47029;50.994;2.876;2022-09-29T01:33:33;6.07;;;2.75;;
61150;SDS011;47029;50.994;2.876;2022-09-29T01:41:29;6.70;;;2.83;;
61150;SDS011;47029;50.994;2.876;2022-09-29T01:44:02;7.43;;;2.95;;
61150;SDS011;47029;50.994;2.876;2022-09-29T01:46:39;6.15;;;2.60;;
61150;SDS011;47029;50.994;2.876;2022-09-29T01:49:15;5.32;;;2.60;;
61150;SDS011;47029;50.994;2.876;2022-09-29T01:52:04;6.35;;;3.12;;
61150;SDS011;47029;50.994;2.876;2022-09-29T01:57:28;6.37;;;2.60;;
61150;SDS011;47029;50.994;2.876;2022-09-29T02:00:16;6.28;;;2.40;;
61150;SDS011;47029;50.994;2.876;2022-09-29T02:02:57;7.03;;;2.67;;
61150;SDS011;47029;50.994;2.876;2022-09-29T02:05:59;6.12;;;2.55;;
61150;SDS011;47029;50.994;2.876;2022-09-29T02:11:13;7.53;;;2.65;;
61150;SDS011;47029;50.994;2.876;2022-09-29T02:13:58;6.40;;;2.65;;
61150;SDS011;47029;50.994;2.876;2022-09-29T02:16:42;7.60;;;2.95;;
61150;SDS011;47029;50.994;2.876;2022-09-29T02:19:24;6.20;;;2.60;;
61150;SDS011;47029;50.994;2.876;2022-09-29T02:21:53;7.10;;;2.80;;
61150;SDS011;47029;50.994;2.876;2022-09-29T02:24:20;7.05;;;2.78;;
61150;SDS011;47029;50.994;2.876;2022-09-29T02:26:48;6.50;;;2.85;;
61150;SDS011;47029;50.994;2.876;2022-09-29T02:29:14;7.18;;;2.87;;
61150;SDS011;47029;50.994;2.876;2022-09-29T02:31:41;6.75;;;2.72;;
61150;SDS011;47029;50.994;2.876;2022-09-29T02:34:09;7.10;;;2.70;;
61150;SDS011;47029;50.994;2.876;2022-09-29T02:36:55;7.07;;;2.80;;
61150;SDS011;47029;50.994;2.876;2022-09-29T02:45:09;7.47;;;2.72;;
61150;SDS011;47029;50.994;2.876;2022-09-29T02:47:54;6.97;;;2.92;;
61150;SDS011;47029;50.994;2.876;2022-09-29T02:56:09;8.70;;;2.90;;
61150;SDS011;47029;50.994;2.876;2022-09-29T03:01:49;7.43;;;3.03;;
61150;SDS011;47029;50.994;2.876;2022-09-29T03:04:18;6.70;;;2.70;;
61150;SDS011;47029;50.994;2.876;2022-09-29T03:06:45;8.23;;;3.28;;
61150;SDS011;47029;50.994;2.876;2022-09-29T03:09:11;8.35;;;3.00;;
61150;SDS011;47029;50.994;2.876;2022-09-29T03:11:36;7.53;;;3.00;;
61150;SDS011;47029;50.994;2.876;2022-09-29T03:14:02;8.05;;;3.33;;
61150;SDS011;47029;50.994;2.876;2022-09-29T03:16:30;7.03;;;3.15;;
61150;SDS011;47029;50.994;2.876;2022-09-29T03:18:57;9.38;;;3.50;;
61150;SDS011;47029;50.994;2.876;2022-09-29T03:21:23;7.37;;;3.05;;
61150;SDS011;47029;50.994;2.876;2022-09-29T03:23:48;7.47;;;3.17;;
61150;SDS011;47029;50.994;2.876;2022-09-29T03:26:14;8.30;;;3.53;;
61150;SDS011;47029;50.994;2.876;2022-09-29T03:28:41;6.75;;;3.00;;
61150;SDS011;47029;50.994;2.876;2022-09-29T03:31:09;7.45;;;3.40;;
61150;SDS011;47029;50.994;2.876;2022-09-29T03:33:36;7.55;;;3.30;;
61150;SDS011;47029;50.994;2.876;2022-09-29T03:36:04;8.20;;;3.35;;
61150;SDS011;47029;50.994;2.876;2022-09-29T03:38:39;7.00;;;3.05;;
61150;SDS011;47029;50.994;2.876;2022-09-29T03:41:06;7.90;;;3.15;;
61150;SDS011;47029;50.994;2.876;2022-09-29T03:43:32;8.00;;;3.20;;
61150;SDS011;47029;50.994;2.876;2022-09-29T03:45:58;7.30;;;3.40;;
61150;SDS011;47029;50.994;2.876;2022-09-29T03:48:24;7.85;;;3.50;;
61150;SDS011;47029;50.994;2.876;2022-09-29T03:50:54;8.63;;;3.50;;
61150;SDS011;47029;50.994;2.876;2022-09-29T03:53:20;8.40;;;3.45;;
61150;SDS011;47029;50.994;2.876;2022-09-29T03:55:46;8.15;;;3.78;;
61150;SDS011;47029;50.994;2.876;2022-09-29T03:58:14;7.72;;;3.92;;
61150;SDS011;47029;50.994;2.876;2022-09-29T04:00:40;9.02;;;3.67;;
61150;SDS011;47029;50.994;2.876;2022-09-29T04:03:06;8.05;;;3.53;;
61150;SDS011;47029;50.994;2.876;2022-09-29T04:05:33;10.02;;;3.50;;
61150;SDS011;47029;50.994;2.876;2022-09-29T04:08:03;8.07;;;3.72;;
61150;SDS011;47029;50.994;2.876;2022-09-29T04:10:36;8.55;;;3.53;;
61150;SDS011;47029;50.994;2.876;2022-09-29T04:13:02;8.48;;;3.45;;
61150;SDS011;47029;50.994;2.876;2022-09-29T04:15:30;9.23;;;3.60;;
61150;SDS011;47029;50.994;2.876;2022-09-29T04:17:56;8.05;;;3.53;;
61150;SDS011;47029;50.994;2.876;2022-09-29T04:20:22;8.18;;;3.30;;
61150;SDS011;47029;50.994;2.876;2022-09-29T04:22:48;8.05;;;3.70;;
61150;SDS011;47029;50.994;2.876;2022-09-29T04:25:14;7.90;;;3.55;;
61150;SDS011;47029;50.994;2.876;2022-09-29T04:27:40;8.85;;;4.00;;
61150;SDS011;47029;50.994;2.876;2022-09-29T04:30:07;8.80;;;3.90;;
61150;SDS011;47029;50.994;2.876;2022-09-29T04:32:36;8.85;;;3.55;;
61150;SDS011;47029;50.994;2.876;2022-09-29T04:35:02;7.80;;;3.35;;
61150;SDS011;47029;50.994;2.876;2022-09-29T04:37:29;8.50;;;3.37;;
61150;SDS011;47029;50.994;2.876;2022-09-29T04:39:55;9.10;;;3.95;;
61150;SDS011;47029;50.994;2.876;2022-09-29T04:42:22;8.48;;;3.70;;
61150;SDS011;47029;50.994;2.876;2022-09-29T04:44:48;8.68;;;4.15;;
61150;SDS011;47029;50.994;2.876;2022-09-29T04:47:16;8.30;;;3.78;;
61150;SDS011;47029;50.994;2.876;2022-09-29T04:49:43;7.80;;;3.55;;
61150;SDS011;47029;50.994;2.876;2022-09-29T04:52:10;9.57;;;3.95;;
61150;SDS011;47029;50.994;2.876;2022-09-29T04:54:38;9.05;;;3.90;;
61150;SDS011;47029;50.994;2.876;2022-09-29T04:57:05;8.02;;;3.65;;
61150;SDS011;47029;50.994;2.876;2022-09-29T04:59:31;9.13;;;4.20;;
61150;SDS011;47029;50.994;2.876;2022-09-29T05:01:58;9.88;;;4.22;;
61150;SDS011;47029;50.994;2.876;2022-09-29T05:04:25;8.88;;;4.05;;
61150;SDS011;47029;50.994;2.876;2022-09-29T05:06:52;9.13;;;4.00;;
61150;SDS011;47029;50.994;2.876;2022-09-29T05:09:18;9.30;;;3.95;;
61150;SDS011;47029;50.994;2.876;2022-09-29T05:11:45;8.73;;;4.00;;
61150;SDS011;47029;50.994;2.876;2022-09-29T05:14:11;8.30;;;3.67;;
61150;SDS011;47029;50.994;2.876;2022-09-29T05:16:37;8.55;;;3.85;;
61150;SDS011;47029;50.994;2.876;2022-09-29T05:19:03;8.25;;;3.83;;
61150;SDS011;47029;50.994;2.876;2022-09-29T05:21:29;7.90;;;3.53;;
61150;SDS011;47029;50.994;2.876;2022-09-29T05:23:55;8.32;;;3.50;;
61150;SDS011;47029;50.994;2.876;2022-09-29T05:26:21;8.30;;;3.60;;
61150;SDS011;47029;50.994;2.876;2022-09-29T05:28:48;8.48;;;3.47;;
61150;SDS011;47029;50.994;2.876;2022-09-29T05:31:15;8.18;;;3.50;;
61150;SDS011;47029;50.994;2.876;2022-09-29T05:33:42;8.00;;;3.47;;
61150;SDS011;47029;50.994;2.876;2022-09-29T05:36:09;7.70;;;3.60;;
61150;SDS011;47029;50.994;2.876;2022-09-29T05:38:37;7.37;;;3.40;;
61150;SDS011;47029;50.994;2.876;2022-09-29T05:41:05;9.23;;;3.83;;
61150;SDS011;47029;50.994;2.876;2022-09-29T05:43:33;9.57;;;3.97;;
61150;SDS011;47029;50.994;2.876;2022-09-29T05:46:00;10.15;;;4.40;;
61150;SDS011;47029;50.994;2.876;2022-09-29T05:48:31;8.95;;;4.57;;
61150;SDS011;47029;50.994;2.876;2022-09-29T05:50:58;8.38;;;3.90;;
61150;SDS011;47029;50.994;2.876;2022-09-29T05:53:25;8.68;;;3.72;;
61150;SDS011;47029;50.994;2.876;2022-09-29T05:55:51;11.27;;;4.37;;
61150;SDS011;47029;50.994;2.876;2022-09-29T05:58:17;8.32;;;4.00;;
61150;SDS011;47029;50.994;2.876;2022-09-29T06:00:44;9.15;;;3.90;;
61150;SDS011;47029;50.994;2.876;2022-09-29T06:03:10;9.82;;;4.78;;
61150;SDS011;47029;50.994;2.876;2022-09-29T06:05:37;9.90;;;5.05;;
61150;SDS011;47029;50.994;2.876;2022-09-29T06:08:03;10.07;;;5.30;;
61150;SDS011;47029;50.994;2.876;2022-09-29T06:10:30;9.23;;;4.25;;
61150;SDS011;47029;50.994;2.876;2022-09-29T06:12:56;10.98;;;4.47;;
61150;SDS011;47029;50.994;2.876;2022-09-29T06:15:23;10.20;;;4.40;;
61150;SDS011;47029;50.994;2.876;2022-09-29T06:17:55;11.30;;;4.30;;
61150;SDS011;47029;50.994;2.876;2022-09-29T06:20:22;10.43;;;4.18;;
61150;SDS011;47029;50.994;2.876;2022-09-29T06:22:49;11.18;;;4.97;;
61150;SDS011;47029;50.994;2.876;2022-09-29T06:25:19;9.68;;;4.53;;
61150;SDS011;47029;50.994;2.876;2022-09-29T06:27:45;9.10;;;4.18;;
61150;SDS011;47029;50.994;2.876;2022-09-29T06:30:12;10.20;;;4.70;;
61150;SDS011;47029;50.994;2.876;2022-09-29T06:32:39;10.30;;;4.75;;
61150;SDS011;47029;50.994;2.876;2022-09-29T06:35:05;9.38;;;4.35;;
61150;SDS011;47029;50.994;2.876;2022-09-29T06:37:49;10.65;;;5.00;;
61150;SDS011;47029;50.994;2.876;2022-09-29T06:40:18;9.90;;;4.75;;
61150;SDS011;47029;50.994;2.876;2022-09-29T06:42:47;9.25;;;4.68;;
61150;SDS011;47029;50.994;2.876;2022-09-29T06:45:14;9.27;;;4.62;;
61150;SDS011;47029;50.994;2.876;2022-09-29T06:47:40;12.23;;;5.85;;
61150;SDS011;47029;50.994;2.876;2022-09-29T06:50:05;9.98;;;4.90;;
61150;SDS011;47029;50.994;2.876;2022-09-29T06:52:36;11.32;;;4.97;;
61150;SDS011;47029;50.994;2.876;2022-09-29T06:55:02;9.82;;;5.20;;
61150;SDS011;47029;50.994;2.876;2022-09-29T06:57:28;11.32;;;6.20;;
61150;SDS011;47029;50.994;2.876;2022-09-29T06:59:53;10.38;;;4.90;;
61150;SDS011;47029;50.994;2.876;2022-09-29T07:02:19;10.43;;;6.20;;
61150;SDS011;47029;50.994;2.876;2022-09-29T07:04:45;12.57;;;5.68;;
61150;SDS011;47029;50.994;2.876;2022-09-29T07:07:12;9.98;;;5.25;;
61150;SDS011;47029;50.994;2.876;2022-09-29T07:09:39;11.12;;;6.00;;
61150;SDS011;47029;50.994;2.876;2022-09-29T07:12:06;11.43;;;6.90;;
61150;SDS011;47029;50.994;2.876;2022-09-29T07:14:33;10.95;;;5.53;;
61150;SDS011;47029;50.994;2.876;2022-09-29T07:16:59;10.93;;;5.97;;
61150;SDS011;47029;50.994;2.876;2022-09-29T07:19:26;11.23;;;5.75;;
61150;SDS011;47029;50.994;2.876;2022-09-29T07:21:52;11.70;;;5.70;;
61150;SDS011;47029;50.994;2.876;2022-09-29T07:24:19;11.05;;;5.87;;
61150;SDS011;47029;50.994;2.876;2022-09-29T07:26:46;12.45;;;6.05;;
61150;SDS011;47029;50.994;2.876;2022-09-29T07:29:12;12.00;;;6.18;;
61150;SDS011;47029;50.994;2.876;2022-09-29T07:31:38;10.80;;;5.93;;
61150;SDS011;47029;50.994;2.876;2022-09-29T07:34:04;11.32;;;6.70;;
61150;SDS011;47029;50.994;2.876;2022-09-29T07:36:31;13.07;;;6.35;;
61150;SDS011;47029;50.994;2.876;2022-09-29T07:38:57;12.73;;;6.28;;
61150;SDS011;47029;50.994;2.876;2022-09-29T07:41:23;12.80;;;6.62;;
61150;SDS011;47029;50.994;2.876;2022-09-29T07:43:50;12.73;;;6.15;;
61150;SDS011;47029;50.994;2.876;2022-09-29T07:46:17;13.43;;;6.70;;
61150;SDS011;47029;50.994;2.876;2022-09-29T07:48:43;13.75;;;6.75;;
61150;SDS011;47029;50.994;2.876;2022-09-29T07:51:14;14.13;;;6.93;;
61150;SDS011;47029;50.994;2.876;2022-09-29T07:53:42;11.63;;;6.30;;
61150;SDS011;47029;50.994;2.876;2022-09-29T07:56:09;11.65;;;6.68;;
61150;SDS011;47029;50.994;2.876;2022-09-29T07:58:41;14.85;;;6.55;;
61150;SDS011;47029;50.994;2.876;2022-09-29T08:01:08;12.75;;;7.28;;
61150;SDS011;47029;50.994;2.876;2022-09-29T08:03:40;12.10;;;6.10;;
61150;SDS011;47029;50.994;2.876;2022-09-29T08:06:08;13.15;;;6.93;;
61150;SDS011;47029;50.994;2.876;2022-09-29T08:08:36;13.00;;;7.90;;
61150;SDS011;47029;50.994;2.876;2022-09-29T08:11:05;12.35;;;6.55;;
61150;SDS011;47029;50.994;2.876;2022-09-29T08:13:35;11.95;;;7.10;;
61150;SDS011;47029;50.994;2.876;2022-09-29T08:16:05;12.73;;;7.85;;
61150;SDS011;47029;50.994;2.876;2022-09-29T08:18:34;11.45;;;5.85;;
61150;SDS011;47029;50.994;2.876;2022-09-29T08:21:01;11.45;;;6.03;;
61150;SDS011;47029;50.994;2.876;2022-09-29T08:23:27;11.85;;;5.93;;
61150;SDS011;47029;50.994;2.876;2022-09-29T08:26:03;13.40;;;7.00;;
61150;SDS011;47029;50.994;2.876;2022-09-29T08:28:31;12.82;;;5.68;;
61150;SDS011;47029;50.994;2.876;2022-09-29T08:31:02;12.60;;;5.85;;
61150;SDS011;47029;50.994;2.876;2022-09-29T08:33:34;11.90;;;6.40;;
61150;SDS011;47029;50.994;2.876;2022-09-29T08:36:00;10.95;;;5.95;;
61150;SDS011;47029;50.994;2.876;2022-09-29T08:38:29;10.65;;;5.93;;
61150;SDS011;47029;50.994;2.876;2022-09-29T08:41:02;11.20;;;6.37;;
61150;SDS011;47029;50.994;2.876;2022-09-29T08:43:30;12.65;;;6.18;;
61150;SDS011;47029;50.994;2.876;2022-09-29T08:46:01;10.52;;;6.25;;
61150;SDS011;47029;50.994;2.876;2022-09-29T08:48:38;10.60;;;5.07;;
61150;SDS011;47029;50.994;2.876;2022-09-29T08:51:29;11.70;;;5.70;;
61150;SDS011;47029;50.994;2.876;2022-09-29T08:54:02;9.90;;;5.20;;
61150;SDS011;47029;50.994;2.876;2022-09-29T08:56:37;10.32;;;4.90;;
61150;SDS011;47029;50.994;2.876;2022-09-29T08:59:04;9.20;;;4.15;;
61150;SDS011;47029;50.994;2.876;2022-09-29T09:01:34;8.55;;;4.15;;
61150;SDS011;47029;50.994;2.876;2022-09-29T09:07:04;8.80;;;4.00;;
61150;SDS011;47029;50.994;2.876;2022-09-29T09:23:24;9.25;;;3.92;;
61150;SDS011;47029;50.994;2.876;2022-09-29T09:25:57;8.95;;;4.00;;
61150;SDS011;47029;50.994;2.876;2022-09-29T09:28:27;9.23;;;3.95;;
61150;SDS011;47029;50.994;2.876;2022-09-29T09:31:07;8.60;;;4.22;;
61150;SDS011;47029;50.994;2.876;2022-09-29T09:41:35;8.05;;;3.85;;
61150;SDS011;47029;50.994;2.876;2022-09-29T09:44:05;7.97;;;3.53;;
61150;SDS011;47029;50.994;2.876;2022-09-29T09:46:41;9.20;;;3.58;;
61150;SDS011;47029;50.994;2.876;2022-09-29T09:49:17;7.72;;;3.30;;
61150;SDS011;47029;50.994;2.876;2022-09-29T09:51:54;7.30;;;3.20;;
61150;SDS011;47029;50.994;2.876;2022-09-29T10:02:15;5.95;;;2.60;;
61150;SDS011;47029;50.994;2.876;2022-09-29T10:04:44;7.15;;;2.90;;
61150;SDS011;47029;50.994;2.876;2022-09-29T10:07:14;8.00;;;3.00;;
61150;SDS011;47029;50.994;2.876;2022-09-29T10:09:41;8.93;;;2.90;;
61150;SDS011;47029;50.994;2.876;2022-09-29T10:12:11;7.20;;;3.00;;
61150;SDS011;47029;50.994;2.876;2022-09-29T10:14:44;6.03;;;2.40;;
61150;SDS011;47029;50.994;2.876;2022-09-29T10:17:15;6.60;;;2.72;;
61150;SDS011;47029;50.994;2.876;2022-09-29T10:19:54;6.68;;;2.30;;
61150;SDS011;47029;50.994;2.876;2022-09-29T10:24:53;5.32;;;2.20;;
61150;SDS011;47029;50.994;2.876;2022-09-29T10:27:30;4.00;;;1.90;;
61150;SDS011;47029;50.994;2.876;2022-09-29T10:29:56;4.28;;;2.00;;
61150;SDS011;47029;50.994;2.876;2022-09-29T10:32:28;3.87;;;1.75;;
61150;SDS011;47029;50.994;2.876;2022-09-29T10:35:07;3.95;;;2.12;;
61150;SDS011;47029;50.994;2.876;2022-09-29T10:37:35;5.32;;;2.20;;
61150;SDS011;47029;50.994;2.876;2022-09-29T10:42:36;5.35;;;2.10;;
61150;SDS011;47029;50.994;2.876;2022-09-29T10:45:17;4.75;;;2.00;;
61150;SDS011;47029;50.994;2.876;2022-09-29T10:50:20;5.03;;;2.20;;
61150;SDS011;47029;50.994;2.876;2022-09-29T10:55:21;5.00;;;2.10;;
61150;SDS011;47029;50.994;2.876;2022-09-29T10:57:48;6.30;;;1.90;;
61150;SDS011;47029;50.994;2.876;2022-09-29T11:03:17;4.62;;;2.08;;
61150;SDS011;47029;50.994;2.876;2022-09-29T11:06:04;5.65;;;2.20;;
61150;SDS011;47029;50.994;2.876;2022-09-29T11:20:02;6.60;;;2.20;;
61150;SDS011;47029;50.994;2.876;2022-09-29T11:41:59;5.70;;;2.25;;
61150;SDS011;47029;50.994;2.876;2022-09-29T11:53:18;5.70;;;2.12;;
61150;SDS011;47029;50.994;2.876;2022-09-29T11:56:11;5.50;;;2.10;;
61150;SDS011;47029;50.994;2.876;2022-09-29T12:18:16;8.13;;;2.97;;
61150;SDS011;47029;50.994;2.876;2022-09-29T12:20:47;6.90;;;2.62;;
61150;SDS011;47029;50.994;2.876;2022-09-29T12:23:16;6.55;;;2.60;;
61150;SDS011;47029;50.994;2.876;2022-09-29T12:26:31;8.95;;;2.87;;
61150;SDS011;47029;50.994;2.876;2022-09-29T12:28:44;7.90;;;3.03;;
61150;SDS011;47029;50.994;2.876;2022-09-29T12:31:16;7.80;;;3.20;;
61150;SDS011;47029;50.994;2.876;2022-09-29T12:36:34;9.85;;;4.00;;
61150;SDS011;47029;50.994;2.876;2022-09-29T12:39:17;6.72;;;2.90;;
61150;SDS011;47029;50.994;2.876;2022-09-29T12:44:48;6.97;;;2.70;;
61150;SDS011;47029;50.994;2.876;2022-09-29T12:52:51;6.50;;;2.70;;
61150;SDS011;47029;50.994;2.876;2022-09-29T12:58:10;8.82;;;2.80;;
61150;SDS011;47029;50.994;2.876;2022-09-29T13:00:53;6.50;;;2.60;;
61150;SDS011;47029;50.994;2.876;2022-09-29T13:04:11;7.70;;;3.10;;
61150;SDS011;47029;50.994;2.876;2022-09-29T13:06:23;6.40;;;2.60;;
61150;SDS011;47029;50.994;2.876;2022-09-29T13:28:35;6.15;;;2.70;;
61150;SDS011;47029;50.994;2.876;2022-09-29T13:31:16;7.47;;;2.90;;
61150;SDS011;47029;50.994;2.876;2022-09-29T13:33:49;6.12;;;2.47;;
61150;SDS011;47029;50.994;2.876;2022-09-29T13:36:23;7.45;;;2.60;;
61150;SDS011;47029;50.994;2.876;2022-09-29T13:38:55;8.60;;;2.78;;
61150;SDS011;47029;50.994;2.876;2022-09-29T13:49:01;5.65;;;2.55;;
61150;SDS011;47029;50.994;2.876;2022-09-29T13:51:40;8.45;;;3.00;;
61150;SDS011;47029;50.994;2.876;2022-09-29T13:54:21;6.70;;;2.50;;
61150;SDS011;47029;50.994;2.876;2022-09-29T13:56:58;6.35;;;2.30;;
61150;SDS011;47029;50.994;2.876;2022-09-29T14:02:41;6.32;;;2.67;;
61150;SDS011;47029;50.994;2.876;2022-09-29T14:10:28;6.93;;;2.37;;
61150;SDS011;47029;50.994;2.876;2022-09-29T14:13:06;4.00;;;1.98;;
61150;SDS011;47029;50.994;2.876;2022-09-29T14:15:54;5.57;;;2.12;;
61150;SDS011;47029;50.994;2.876;2022-09-29T14:18:34;5.45;;;2.35;;
61150;SDS011;47029;50.994;2.876;2022-09-29T14:30:03;5.78;;;2.08;;
61150;SDS011;47029;50.994;2.876;2022-09-29T14:38:36;6.85;;;2.42;;
61150;SDS011;47029;50.994;2.876;2022-09-29T14:43:51;5.80;;;2.30;;
61150;SDS011;47029;50.994;2.876;2022-09-29T14:49:24;5.03;;;2.10;;
61150;SDS011;47029;50.994;2.876;2022-09-29T14:55:15;8.27;;;3.15;;
61150;SDS011;47029;50.994;2.876;2022-09-29T14:57:59;8.50;;;3.40;;
61150;SDS011;47029;50.994;2.876;2022-09-29T15:02:58;7.72;;;3.28;;
61150;SDS011;47029;50.994;2.876;2022-09-29T15:05:26;6.37;;;2.60;;
61150;SDS011;47029;50.994;2.876;2022-09-29T15:07:55;8.48;;;3.25;;
61150;SDS011;47029;50.994;2.876;2022-09-29T15:10:26;5.97;;;2.50;;
61150;SDS011;47029;50.994;2.876;2022-09-29T15:15:49;7.18;;;2.67;;
61150;SDS011;47029;50.994;2.876;2022-09-29T15:19:21;6.82;;;2.80;;
61150;SDS011;47029;50.994;2.876;2022-09-29T15:21:54;6.35;;;2.75;;
61150;SDS011;47029;50.994;2.876;2022-09-29T15:24:49;5.22;;;2.40;;
61150;SDS011;47029;50.994;2.876;2022-09-29T15:28:14;6.15;;;2.65;;
61150;SDS011;47029;50.994;2.876;2022-09-29T15:30:50;6.47;;;2.60;;
61150;SDS011;47029;50.994;2.876;2022-09-29T15:33:23;6.62;;;2.80;;
61150;SDS011;47029;50.994;2.876;2022-09-29T15:36:01;7.00;;;2.90;;
61150;SDS011;47029;50.994;2.876;2022-09-29T15:38:51;7.53;;;3.20;;
61150;SDS011;47029;50.994;2.876;2022-09-29T15:41:18;7.20;;;3.03;;
61150;SDS011;47029;50.994;2.876;2022-09-29T15:46:22;6.55;;;2.37;;
61150;SDS011;47029;50.994;2.876;2022-09-29T15:49:06;6.78;;;2.62;;
61150;SDS011;47029;50.994;2.876;2022-09-29T15:51:37;6.07;;;2.45;;
61150;SDS011;47029;50.994;2.876;2022-09-29T15:54:05;6.55;;;2.60;;
61150;SDS011;47029;50.994;2.876;2022-09-29T15:56:34;6.75;;;2.35;;
61150;SDS011;47029;50.994;2.876;2022-09-29T15:59:43;6.07;;;2.62;;
61150;SDS011;47029;50.994;2.876;2022-09-29T16:04:46;6.70;;;2.40;;
61150;SDS011;47029;50.994;2.876;2022-09-29T16:07:26;6.55;;;3.00;;
61150;SDS011;47029;50.994;2.876;2022-09-29T16:09:59;9.40;;;3.80;;
61150;SDS011;47029;50.994;2.876;2022-09-29T16:12:34;11.00;;;3.33;;
61150;SDS011;47029;50.994;2.876;2022-09-29T16:15:10;9.82;;;4.15;;
61150;SDS011;47029;50.994;2.876;2022-09-29T16:17:52;9.25;;;4.20;;
61150;SDS011;47029;50.994;2.876;2022-09-29T16:20:21;8.82;;;3.30;;
61150;SDS011;47029;50.994;2.876;2022-09-29T16:22:52;7.25;;;2.80;;
61150;SDS011;47029;50.994;2.876;2022-09-29T16:27:52;10.50;;;4.37;;
61150;SDS011;47029;50.994;2.876;2022-09-29T16:30:35;11.55;;;4.90;;
61150;SDS011;47029;50.994;2.876;2022-09-29T16:41:08;25.48;;;13.35;;
61150;SDS011;47029;50.994;2.876;2022-09-29T16:43:39;29.92;;;13.93;;
61150;SDS011;47029;50.994;2.876;2022-09-29T16:46:09;34.50;;;17.25;;
61150;SDS011;47029;50.994;2.876;2022-09-29T16:48:41;23.45;;;12.70;;
61150;SDS011;47029;50.994;2.876;2022-09-29T16:51:17;15.38;;;7.80;;
61150;SDS011;47029;50.994;2.876;2022-09-29T16:53:45;18.33;;;9.57;;
61150;SDS011;47029;50.994;2.876;2022-09-29T16:56:16;21.52;;;11.18;;
61150;SDS011;47029;50.994;2.876;2022-09-29T16:59:04;12.23;;;5.82;;
61150;SDS011;47029;50.994;2.876;2022-09-29T17:01:39;11.40;;;5.93;;
61150;SDS011;47029;50.994;2.876;2022-09-29T17:04:06;11.23;;;5.70;;
61150;SDS011;47029;50.994;2.876;2022-09-29T17:06:33;11.55;;;6.90;;
61150;SDS011;47029;50.994;2.876;2022-09-29T17:08:59;10.82;;;5.25;;
61150;SDS011;47029;50.994;2.876;2022-09-29T17:11:26;9.68;;;4.75;;
61150;SDS011;47029;50.994;2.876;2022-09-29T17:13:53;10.35;;;4.87;;
61150;SDS011;47029;50.994;2.876;2022-09-29T17:16:21;9.48;;;4.37;;
61150;SDS011;47029;50.994;2.876;2022-09-29T17:18:52;10.18;;;4.47;;
61150;SDS011;47029;50.994;2.876;2022-09-29T17:21:20;12.32;;;4.85;;
61150;SDS011;47029;50.994;2.876;2022-09-29T17:23:47;11.10;;;5.95;;
61150;SDS011;47029;50.994;2.876;2022-09-29T17:26:16;10.70;;;5.53;;
61150;SDS011;47029;50.994;2.876;2022-09-29T17:29:03;10.73;;;5.65;;
61150;SDS011;47029;50.994;2.876;2022-09-29T17:31:30;13.05;;;5.97;;
61150;SDS011;47029;50.994;2.876;2022-09-29T17:33:56;13.90;;;6.70;;
61150;SDS011;47029;50.994;2.876;2022-09-29T17:36:22;12.18;;;6.35;;
61150;SDS011;47029;50.994;2.876;2022-09-29T17:38:48;12.93;;;6.10;;
61150;SDS011;47029;50.994;2.876;2022-09-29T17:41:15;12.05;;;5.93;;
61150;SDS011;47029;50.994;2.876;2022-09-29T17:43:42;13.10;;;6.18;;
61150;SDS011;47029;50.994;2.876;2022-09-29T17:46:11;10.98;;;5.65;;
61150;SDS011;47029;50.994;2.876;2022-09-29T17:48:39;10.98;;;4.97;;
61150;SDS011;47029;50.994;2.876;2022-09-29T17:51:12;9.32;;;4.68;;
61150;SDS011;47029;50.994;2.876;2022-09-29T17:53:42;8.95;;;4.30;;
61150;SDS011;47029;50.994;2.876;2022-09-29T17:56:14;8.85;;;3.90;;
61150;SDS011;47029;50.994;2.876;2022-09-29T17:58:47;8.60;;;4.20;;
61150;SDS011;47029;50.994;2.876;2022-09-29T18:01:15;10.82;;;5.57;;
61150;SDS011;47029;50.994;2.876;2022-09-29T18:03:44;11.48;;;7.72;;
61150;SDS011;47029;50.994;2.876;2022-09-29T18:06:19;16.83;;;13.70;;
61150;SDS011;47029;50.994;2.876;2022-09-29T18:08:50;13.67;;;9.83;;
61150;SDS011;47029;50.994;2.876;2022-09-29T18:11:18;9.40;;;4.65;;
61150;SDS011;47029;50.994;2.876;2022-09-29T18:13:45;9.65;;;4.00;;
61150;SDS011;47029;50.994;2.876;2022-09-29T18:16:12;10.02;;;4.03;;
61150;SDS011;47029;50.994;2.876;2022-09-29T18:18:41;8.90;;;4.00;;
61150;SDS011;47029;50.994;2.876;2022-09-29T18:21:08;9.40;;;4.82;;
61150;SDS011;47029;50.994;2.876;2022-09-29T18:23:34;10.95;;;5.70;;
61150;SDS011;47029;50.994;2.876;2022-09-29T18:26:01;10.93;;;5.30;;
61150;SDS011;47029;50.994;2.876;2022-09-29T18:28:29;10.30;;;5.10;;
61150;SDS011;47029;50.994;2.876;2022-09-29T18:30:59;11.12;;;4.57;;
61150;SDS011;47029;50.994;2.876;2022-09-29T18:33:31;10.32;;;4.40;;
61150;SDS011;47029;50.994;2.876;2022-09-29T18:35:58;9.05;;;3.80;;
61150;SDS011;47029;50.994;2.876;2022-09-29T18:38:25;8.82;;;3.80;;
61150;SDS011;47029;50.994;2.876;2022-09-29T18:40:52;9.38;;;4.18;;
61150;SDS011;47029;50.994;2.876;2022-09-29T18:43:19;9.38;;;3.97;;
61150;SDS011;47029;50.994;2.876;2022-09-29T18:45:49;10.82;;;3.90;;
61150;SDS011;47029;50.994;2.876;2022-09-29T18:48:16;9.80;;;3.60;;
61150;SDS011;47029;50.994;2.876;2022-09-29T18:50:43;9.43;;;3.90;;
61150;SDS011;47029;50.994;2.876;2022-09-29T18:53:11;10.15;;;4.78;;
61150;SDS011;47029;50.994;2.876;2022-09-29T18:55:38;14.40;;;7.50;;
61150;SDS011;47029;50.994;2.876;2022-09-29T18:58:09;12.43;;;6.32;;
61150;SDS011;47029;50.994;2.876;2022-09-29T19:00:39;11.25;;;4.10;;
61150;SDS011;47029;50.994;2.876;2022-09-29T19:03:08;11.82;;;4.65;;
61150;SDS011;47029;50.994;2.876;2022-09-29T19:05:34;10.88;;;4.37;;